createdAt,value
2018-12-18T00:01:18.788Z,6.90
2018-12-18T00:03:51.248Z,6.87
2018-12-18T00:06:24.995Z,7.03
2018-12-18T00:08:57.156Z,6.87
2018-12-18T00:11:32.186Z,6.40
2018-12-18T00:14:06.371Z,6.65
2018-12-18T00:16:38.106Z,6.45
2018-12-18T00:19:10.408Z,6.97
2018-12-18T00:21:42.522Z,6.75
2018-12-18T00:24:15.064Z,7.00
2018-12-18T00:26:46.790Z,7.12
2018-12-18T00:29:18.830Z,6.55
2018-12-18T00:31:50.826Z,7.45
2018-12-18T00:34:25.145Z,6.95
2018-12-18T00:36:59.154Z,7.33
2018-12-18T00:39:31.489Z,7.05
2018-12-18T00:42:04.472Z,6.80
2018-12-18T00:44:40.923Z,7.03
2018-12-18T00:47:12.843Z,8.25
2018-12-18T00:49:47.875Z,8.83
2018-12-18T00:52:22.206Z,7.30
2018-12-18T00:54:54.748Z,7.50
2018-12-18T00:57:27.176Z,6.50
2018-12-18T00:59:59.238Z,6.15
2018-12-18T01:02:31.629Z,6.15
2018-12-18T01:05:03.634Z,6.30
2018-12-18T01:07:36.219Z,5.60
2018-12-18T01:10:08.320Z,5.53
2018-12-18T01:12:41.239Z,5.17
2018-12-18T01:15:13.657Z,5.45
2018-12-18T01:17:45.528Z,6.00
2018-12-18T01:20:21.066Z,5.58
2018-12-18T01:22:53.454Z,6.05
2018-12-18T01:25:25.390Z,6.28
2018-12-18T01:27:57.778Z,6.33
2018-12-18T01:30:30.200Z,7.08
2018-12-18T01:33:04.097Z,6.72
2018-12-18T01:35:35.893Z,6.40
2018-12-18T01:38:07.834Z,6.75
2018-12-18T01:40:39.876Z,6.25
2018-12-18T01:43:14.841Z,6.15
2018-12-18T01:45:46.803Z,5.50
2018-12-18T01:48:18.788Z,6.42
2018-12-18T01:50:54.937Z,5.37
2018-12-18T01:53:26.807Z,5.53
2018-12-18T01:56:01.080Z,5.80
2018-12-18T01:58:32.671Z,6.05
2018-12-18T02:01:04.589Z,6.58
2018-12-18T02:03:36.560Z,6.72
2018-12-18T02:06:10.754Z,6.95
2018-12-18T02:08:43.137Z,7.03
2018-12-18T02:11:15.424Z,7.67
2018-12-18T02:13:50.726Z,7.78
2018-12-18T02:16:23.284Z,9.38
2018-12-18T02:18:55.396Z,9.95
2018-12-18T02:21:27.152Z,12.40
2018-12-18T02:24:02.583Z,14.25
2018-12-18T02:26:35.755Z,16.80
2018-12-18T02:29:10.992Z,16.62
2018-12-18T02:31:43.071Z,17.77
2018-12-18T02:34:14.715Z,17.07
2018-12-18T02:36:48.966Z,18.85
2018-12-18T02:39:21.389Z,18.87
2018-12-18T02:41:53.427Z,20.27
2018-12-18T02:44:31.254Z,18.02
2018-12-18T02:47:02.941Z,16.70
2018-12-18T02:49:34.810Z,15.38
2018-12-18T02:52:07.570Z,14.15
2018-12-18T02:54:40.620Z,12.90
2018-12-18T02:57:12.902Z,12.47
2018-12-18T02:59:45.618Z,14.13
2018-12-18T03:02:18.633Z,12.45
2018-12-18T03:04:53.158Z,11.00
2018-12-18T03:07:28.766Z,12.15
2018-12-18T03:10:01.180Z,10.55
2018-12-18T03:12:36.550Z,10.80
2018-12-18T03:15:09.036Z,9.10
2018-12-18T03:17:42.108Z,8.00
2018-12-18T03:20:15.172Z,7.75
2018-12-18T03:22:48.658Z,8.43
2018-12-18T03:25:20.999Z,8.68
2018-12-18T03:27:54.100Z,8.35
2018-12-18T03:30:28.617Z,7.40
2018-12-18T03:33:01.090Z,8.33
2018-12-18T03:35:32.863Z,8.25
2018-12-18T03:38:04.783Z,8.45
2018-12-18T03:40:36.568Z,8.75
2018-12-18T03:43:08.885Z,8.75
2018-12-18T03:45:42.179Z,8.50
2018-12-18T03:48:14.120Z,8.80
2018-12-18T03:50:48.687Z,9.40
2018-12-18T03:53:21.573Z,9.50
2018-12-18T03:55:53.763Z,9.33
2018-12-18T03:58:25.514Z,9.88
2018-12-18T04:00:57.473Z,9.95
2018-12-18T04:03:32.004Z,10.20
2018-12-18T04:06:04.673Z,10.32
2018-12-18T04:08:37.721Z,8.85
2018-12-18T04:11:10.184Z,8.70
2018-12-18T04:13:41.987Z,9.10
2018-12-18T04:16:13.876Z,8.23
2018-12-18T04:18:46.330Z,8.98
2018-12-18T04:21:18.436Z,9.03
2018-12-18T04:23:50.718Z,9.60
2018-12-18T04:26:26.671Z,10.18
2018-12-18T04:28:59.035Z,13.43
2018-12-18T04:31:31.585Z,12.55
2018-12-18T04:34:03.294Z,14.25
2018-12-18T04:36:35.227Z,14.40
2018-12-18T04:39:07.310Z,13.20
2018-12-18T04:41:40.031Z,13.75
2018-12-18T04:44:13.335Z,13.72
2018-12-18T04:46:45.420Z,14.53
2018-12-18T04:49:17.237Z,14.75
2018-12-18T04:51:49.251Z,14.60
2018-12-18T04:54:22.464Z,15.05
2018-12-18T04:56:55.411Z,15.05
2018-12-18T04:59:27.094Z,16.73
2018-12-18T05:01:59.907Z,15.78
2018-12-18T05:04:33.190Z,15.38
2018-12-18T05:07:05.261Z,15.28
2018-12-18T05:09:42.073Z,16.07
2018-12-18T05:12:14.627Z,17.05
2018-12-18T05:14:47.679Z,17.92
2018-12-18T05:17:32.875Z,17.37
2018-12-18T05:20:05.040Z,16.40
2018-12-18T05:22:38.303Z,17.73
2018-12-18T05:25:10.432Z,15.65
2018-12-18T05:27:42.282Z,16.30
2018-12-18T05:30:14.386Z,16.70
2018-12-18T05:32:46.320Z,17.30
2018-12-18T05:35:22.529Z,16.95
2018-12-18T05:37:55.238Z,16.82
2018-12-18T05:40:27.922Z,15.63
2018-12-18T05:43:00.688Z,15.30
2018-12-18T05:45:33.702Z,15.00
2018-12-18T05:53:10.202Z,41.70
2018-12-18T06:03:13.348Z,14.73
2018-12-18T06:08:17.874Z,15.98
2018-12-18T06:10:49.722Z,18.17
2018-12-18T06:15:53.866Z,14.38
2018-12-18T06:18:26.389Z,14.50
2018-12-18T06:20:58.902Z,14.95
2018-12-18T06:23:30.933Z,19.57
2018-12-18T06:26:02.945Z,21.20
2018-12-18T06:28:35.286Z,23.30
2018-12-18T06:31:07.221Z,19.75
2018-12-18T06:33:39.215Z,20.12
2018-12-18T06:36:11.858Z,17.55
2018-12-18T06:38:43.758Z,16.55
2018-12-18T06:41:19.829Z,17.52
2018-12-18T06:43:52.398Z,16.95
2018-12-18T06:46:26.090Z,16.23
2018-12-18T06:48:58.317Z,18.70
2018-12-18T06:51:30.472Z,28.35
2018-12-18T06:54:02.294Z,24.80
2018-12-18T06:56:37.631Z,24.10
2018-12-18T06:59:09.261Z,23.80
2018-12-18T07:01:41.462Z,26.87
2018-12-18T07:04:13.888Z,24.80
2018-12-18T07:06:46.108Z,27.02
2018-12-18T07:09:17.763Z,30.12
2018-12-18T07:11:49.750Z,25.17
2018-12-18T07:14:21.621Z,20.52
2018-12-18T07:16:57.074Z,22.07
2018-12-18T07:19:29.642Z,22.73
2018-12-18T07:22:03.803Z,22.30
2018-12-18T07:24:37.173Z,19.37
2018-12-18T07:27:09.709Z,19.50
2018-12-18T07:29:41.273Z,21.27
2018-12-18T07:32:13.085Z,17.85
2018-12-18T07:34:51.309Z,19.07
2018-12-18T07:37:23.724Z,24.27
2018-12-18T07:39:55.706Z,25.08
2018-12-18T07:42:27.703Z,20.90
2018-12-18T07:44:59.365Z,20.85
2018-12-18T07:47:33.746Z,16.93
2018-12-18T07:50:08.973Z,16.25
2018-12-18T07:52:40.626Z,17.15
2018-12-18T07:55:13.042Z,16.57
2018-12-18T07:57:46.857Z,17.05
2018-12-18T08:00:23.594Z,18.00
2018-12-18T08:02:55.793Z,17.50
2018-12-18T08:05:30.018Z,19.35
2018-12-18T08:08:02.298Z,20.80
2018-12-18T08:10:34.103Z,20.50
2018-12-18T08:13:06.186Z,18.50
2018-12-18T08:15:38.081Z,19.60
2018-12-18T08:18:10.195Z,17.48
2018-12-18T08:20:41.964Z,19.52
2018-12-18T08:23:17.046Z,21.80
2018-12-18T08:25:49.561Z,23.62
2018-12-18T08:28:22.574Z,20.97
2018-12-18T08:30:55.015Z,19.52
2018-12-18T08:33:33.136Z,19.50
2018-12-18T08:36:05.704Z,15.75
2018-12-18T08:38:38.077Z,12.75
2018-12-18T08:41:10.230Z,11.53
2018-12-18T08:43:40.393Z,10.82
2018-12-18T08:46:12.582Z,12.80
2018-12-18T08:48:46.912Z,12.75
2018-12-18T08:51:19.942Z,14.05
2018-12-18T08:53:52.301Z,13.30
2018-12-18T08:56:24.637Z,12.68
2018-12-18T08:58:56.483Z,12.13
2018-12-18T09:01:28.612Z,10.90
2018-12-18T09:04:00.515Z,12.20
2018-12-18T09:06:32.394Z,12.37
2018-12-18T09:09:06.778Z,12.07
2018-12-18T09:11:42.192Z,12.18
2018-12-18T09:14:14.345Z,11.25
2018-12-18T09:16:51.833Z,10.40
2018-12-18T09:19:26.454Z,10.05
2018-12-18T09:21:58.244Z,9.33
2018-12-18T09:24:33.696Z,9.15
2018-12-18T09:27:03.493Z,8.48
2018-12-18T09:29:35.094Z,8.10
2018-12-18T09:32:07.187Z,8.30
2018-12-18T09:34:39.243Z,8.40
2018-12-18T09:37:15.502Z,6.73
2018-12-18T09:39:47.410Z,6.17
2018-12-18T09:42:26.551Z,6.03
2018-12-18T09:44:59.294Z,7.07
2018-12-18T09:47:29.652Z,6.50
2018-12-18T09:50:01.745Z,6.43
2018-12-18T09:52:36.151Z,6.20
2018-12-18T09:55:08.256Z,6.53
2018-12-18T09:57:48.369Z,7.30
2018-12-18T10:00:23.170Z,7.57
2018-12-18T10:02:55.103Z,8.17
2018-12-18T10:05:29.542Z,7.63
2018-12-18T10:08:08.632Z,8.70
2018-12-18T10:10:42.858Z,8.43
2018-12-18T10:13:14.526Z,7.40
2018-12-18T10:15:49.499Z,7.90
2018-12-18T10:18:21.869Z,7.90
2018-12-18T10:20:55.994Z,7.00
2018-12-18T10:23:27.801Z,7.17
2018-12-18T10:26:02.001Z,7.07
2018-12-18T10:28:36.348Z,7.10
2018-12-18T10:31:12.356Z,6.40
2018-12-18T10:33:52.346Z,6.60
2018-12-18T10:36:24.553Z,6.97
2018-12-18T10:38:58.889Z,6.80
2018-12-18T10:41:39.239Z,6.63
2018-12-18T10:44:13.939Z,7.30
2018-12-18T10:46:45.842Z,7.40
2018-12-18T10:49:17.041Z,7.60
2018-12-18T10:51:51.181Z,7.80
2018-12-18T10:54:25.290Z,8.60
2018-12-18T10:56:56.530Z,9.10
2018-12-18T10:59:27.129Z,10.60
2018-12-18T11:02:01.323Z,9.70
2018-12-18T11:04:33.271Z,10.27
2018-12-18T11:07:07.453Z,10.55
2018-12-18T11:09:40.494Z,12.60
2018-12-18T11:12:15.004Z,9.70
2018-12-18T11:14:46.835Z,10.08
2018-12-18T11:17:18.793Z,9.80
2018-12-18T11:19:50.674Z,10.45
2018-12-18T11:22:23.615Z,12.63
2018-12-18T11:24:55.874Z,10.35
2018-12-18T11:27:30.259Z,11.53
2018-12-18T11:30:02.380Z,10.85
2018-12-18T11:32:34.784Z,10.88
2018-12-18T11:35:09.150Z,11.38
2018-12-18T11:37:41.654Z,12.63
2018-12-18T11:40:14.447Z,13.22
2018-12-18T11:42:46.621Z,12.88
2018-12-18T11:45:21.214Z,11.90
2018-12-18T11:47:53.707Z,13.05
2018-12-18T11:50:26.972Z,12.20
2018-12-18T11:52:59.124Z,12.43
2018-12-18T11:55:31.290Z,12.43
2018-12-18T11:58:03.422Z,11.88
2018-12-18T12:00:35.720Z,13.18
2018-12-18T12:03:08.698Z,12.93
2018-12-18T12:05:39.382Z,13.45
2018-12-18T12:08:15.030Z,12.25
2018-12-18T12:10:47.400Z,12.10
2018-12-18T12:13:20.046Z,12.63
2018-12-18T12:15:52.331Z,11.95
2018-12-18T12:18:25.546Z,11.00
2018-12-18T12:20:58.340Z,11.15
2018-12-18T12:23:34.306Z,10.90
2018-12-18T12:26:37.264Z,12.05
2018-12-18T12:29:11.204Z,12.15
2018-12-18T12:31:43.753Z,12.23
2018-12-18T12:34:18.020Z,10.90
2018-12-18T12:36:52.784Z,10.05
2018-12-18T12:39:26.875Z,11.50
2018-12-18T12:41:58.733Z,10.88
2018-12-18T12:44:30.999Z,11.90
2018-12-18T12:47:03.015Z,11.03
2018-12-18T12:49:40.664Z,11.33
2018-12-18T12:52:13.165Z,10.72
2018-12-18T12:54:45.605Z,11.80
2018-12-18T12:57:18.035Z,12.15
2018-12-18T12:59:49.863Z,12.50
2018-12-18T13:02:21.721Z,12.70
2018-12-18T13:04:53.646Z,12.13
2018-12-18T13:07:27.061Z,12.45
2018-12-18T13:09:59.148Z,13.20
2018-12-18T13:12:31.888Z,12.70
2018-12-18T13:15:07.231Z,12.95
2018-12-18T13:17:39.115Z,14.00
2018-12-18T13:20:11.383Z,12.35
2018-12-18T13:22:43.888Z,15.10
2018-12-18T13:25:16.902Z,13.38
2018-12-18T13:27:52.177Z,13.78
2018-12-18T13:30:26.366Z,15.63
2018-12-18T13:32:59.455Z,10.48
2018-12-18T13:35:31.604Z,10.63
2018-12-18T13:38:04.577Z,24.47
2018-12-18T13:40:36.542Z,11.65
2018-12-18T13:43:10.982Z,15.13
2018-12-18T13:45:43.425Z,13.40
2018-12-18T13:48:15.233Z,10.40
2018-12-18T13:50:49.748Z,10.93
2018-12-18T13:53:21.526Z,10.15
2018-12-18T13:55:53.379Z,10.10
2018-12-18T13:58:25.701Z,10.20
2018-12-18T14:00:57.711Z,9.20
2018-12-18T14:03:36.886Z,11.43
2018-12-18T14:06:10.867Z,12.03
2018-12-18T14:08:42.513Z,11.95
2018-12-18T14:11:14.633Z,7.78
2018-12-18T14:13:50.790Z,10.50
2018-12-18T14:16:22.927Z,14.65
2018-12-18T14:18:57.510Z,16.67
2018-12-18T14:21:29.400Z,11.73
2018-12-18T14:24:01.626Z,15.75
2018-12-18T14:26:36.904Z,13.10
2018-12-18T14:29:10.952Z,13.40
2018-12-18T14:31:42.845Z,15.93
2018-12-18T14:34:17.229Z,15.25
2018-12-18T14:36:56.027Z,13.65
2018-12-18T14:39:24.483Z,14.95
2018-12-18T14:41:56.738Z,14.80
2018-12-18T14:44:29.517Z,15.28
2018-12-18T14:47:01.837Z,14.95
2018-12-18T14:49:32.033Z,14.63
2018-12-18T14:52:07.387Z,18.98
2018-12-18T14:54:43.716Z,18.80
2018-12-18T14:57:15.843Z,18.67
2018-12-18T14:59:47.959Z,17.07
2018-12-18T15:02:20.093Z,16.97
2018-12-18T15:04:51.887Z,14.53
2018-12-18T15:07:23.976Z,16.20
2018-12-18T15:09:58.130Z,14.95
2018-12-18T15:12:29.929Z,15.35
2018-12-18T15:15:01.852Z,14.07
2018-12-18T15:17:33.691Z,14.60
2018-12-18T15:20:04.518Z,14.80
2018-12-18T15:22:36.714Z,17.70
2018-12-18T15:25:13.639Z,19.87
2018-12-18T15:27:50.445Z,18.55
2018-12-18T15:30:25.882Z,18.80
2018-12-18T15:32:53.941Z,17.15
2018-12-18T15:35:26.186Z,18.52
2018-12-18T15:38:03.428Z,19.40
2018-12-18T15:40:33.769Z,18.45
2018-12-18T15:43:08.732Z,18.77
2018-12-18T15:45:40.708Z,16.52
2018-12-18T15:48:12.992Z,20.27
2018-12-18T15:50:45.670Z,22.48
2018-12-18T15:53:21.702Z,14.70
2018-12-18T15:55:53.749Z,14.98
2018-12-18T15:58:27.753Z,12.40
2018-12-18T16:00:59.375Z,11.15
2018-12-18T16:03:31.513Z,7.50
2018-12-18T16:06:03.704Z,6.97
2018-12-18T16:08:36.775Z,6.00
2018-12-18T16:11:10.911Z,4.70
2018-12-18T16:13:43.395Z,4.60
2018-12-18T16:16:16.311Z,4.90
2018-12-18T16:18:48.257Z,4.28
2018-12-18T16:21:22.678Z,4.65
2018-12-18T16:23:55.079Z,4.28
2018-12-18T16:26:26.299Z,4.42
2018-12-18T16:29:00.812Z,5.05
2018-12-18T16:31:40.979Z,5.72
2018-12-18T16:34:12.842Z,5.00
2018-12-18T16:36:47.247Z,7.22
2018-12-18T16:39:19.049Z,6.00
2018-12-18T16:46:56.136Z,6.05
2018-12-18T16:49:28.633Z,7.97
2018-12-18T16:52:00.359Z,6.50
2018-12-18T16:54:32.643Z,8.75
2018-12-18T17:10:50.685Z,18.57
2018-12-18T17:13:23.149Z,17.85
2018-12-18T17:15:55.067Z,13.00
2018-12-18T17:18:35.446Z,12.93
2018-12-18T17:21:15.323Z,15.00
2018-12-18T17:23:50.174Z,14.00
2018-12-18T17:26:25.213Z,12.70
2018-12-18T17:28:58.002Z,15.75
2018-12-18T17:31:31.079Z,16.42
2018-12-18T17:34:06.140Z,16.75
2018-12-18T17:36:38.738Z,17.65
2018-12-18T17:39:10.775Z,12.30
2018-12-18T17:41:42.585Z,12.88
2018-12-18T17:44:16.439Z,11.22
2018-12-18T17:46:49.191Z,11.45
2018-12-18T17:49:22.639Z,10.58
2018-12-18T17:51:54.442Z,10.45
2018-12-18T17:54:28.584Z,16.60
2018-12-18T17:57:02.112Z,11.10
2018-12-18T17:59:34.097Z,11.35
2018-12-18T18:02:06.458Z,12.63
2018-12-18T18:04:39.514Z,18.90
2018-12-18T18:07:11.908Z,20.17
2018-12-18T18:09:44.482Z,18.75
2018-12-18T18:12:16.512Z,19.23
2018-12-18T18:14:49.412Z,27.10
2018-12-18T18:17:21.517Z,39.50
2018-12-18T18:19:56.305Z,23.92
2018-12-18T18:22:28.345Z,25.37
2018-12-18T18:25:00.303Z,20.25
2018-12-18T18:27:35.547Z,23.25
2018-12-18T18:30:10.578Z,21.55
2018-12-18T18:32:43.981Z,15.38
2018-12-18T18:35:15.928Z,17.82
2018-12-18T18:37:49.741Z,21.52
2018-12-18T18:40:22.210Z,22.30
2018-12-18T18:42:54.298Z,21.00
2018-12-18T18:45:26.907Z,28.10
2018-12-18T18:47:59.575Z,19.30
2018-12-18T18:50:32.775Z,15.13
2018-12-18T18:53:06.269Z,19.05
2018-12-18T18:55:36.772Z,20.62
2018-12-18T18:58:09.224Z,25.55
2018-12-18T19:00:41.660Z,26.45
2018-12-18T19:03:17.315Z,21.87
2018-12-18T19:05:50.232Z,21.70
2018-12-18T19:08:23.493Z,22.35
2018-12-18T19:10:55.407Z,23.35
2018-12-18T19:13:31.721Z,23.95
2018-12-18T19:16:04.839Z,25.27
2018-12-18T19:18:37.310Z,46.00
2018-12-18T19:21:10.452Z,48.75
2018-12-18T19:23:42.292Z,42.85
2018-12-18T19:26:14.248Z,33.65
2018-12-18T19:28:50.234Z,29.05
2018-12-18T19:31:20.467Z,31.87
2018-12-18T19:33:52.121Z,29.25
2018-12-18T19:36:29.154Z,29.32
2018-12-18T19:39:05.496Z,41.08
2018-12-18T19:41:37.776Z,30.08
2018-12-18T19:44:09.680Z,31.85
2018-12-18T19:46:41.517Z,30.23
2018-12-18T19:49:13.142Z,41.00
2018-12-18T19:51:47.451Z,38.80
2018-12-18T19:54:22.738Z,35.90
2018-12-18T19:56:55.563Z,32.17
2018-12-18T19:59:27.969Z,30.35
2018-12-18T20:02:00.099Z,31.45
2018-12-18T20:04:32.204Z,31.10
2018-12-18T20:07:04.175Z,32.65
2018-12-18T20:09:36.208Z,31.37
2018-12-18T20:12:08.998Z,26.10
2018-12-18T20:14:41.176Z,24.27
2018-12-18T20:17:13.959Z,17.05
2018-12-18T20:19:46.031Z,16.85
2018-12-18T20:22:19.632Z,20.17
2018-12-18T20:24:51.699Z,23.25
2018-12-18T20:27:24.326Z,20.60
2018-12-18T20:29:56.684Z,19.60
2018-12-18T20:32:30.743Z,18.60
2018-12-18T20:35:03.989Z,19.80
2018-12-18T20:37:36.092Z,23.95
2018-12-18T20:40:10.031Z,24.47
2018-12-18T20:42:48.345Z,22.15
2018-12-18T20:45:23.250Z,25.60
2018-12-18T20:47:55.725Z,28.98
2018-12-18T20:50:27.522Z,27.90
2018-12-18T20:53:00.834Z,26.55
2018-12-18T20:55:35.667Z,28.07
2018-12-18T20:58:08.096Z,27.70
2018-12-18T21:00:40.911Z,27.82
2018-12-18T21:03:13.099Z,27.52
2018-12-18T21:05:45.225Z,27.45
2018-12-18T21:08:23.573Z,47.73
2018-12-18T21:10:55.131Z,28.50
2018-12-18T21:13:30.839Z,27.77
2018-12-18T21:16:03.369Z,22.87
2018-12-18T21:18:36.059Z,23.47
2018-12-18T21:21:07.783Z,23.35
2018-12-18T21:23:44.089Z,30.35
2018-12-18T21:26:17.065Z,36.93
2018-12-18T21:28:49.372Z,33.02
2018-12-18T21:31:21.581Z,34.03
2018-12-18T21:33:53.320Z,32.30
2018-12-18T21:36:25.127Z,32.55
2018-12-18T21:38:59.732Z,36.40
2018-12-18T21:41:32.716Z,34.45
2018-12-18T21:44:08.170Z,33.05
2018-12-18T21:46:43.936Z,31.45
2018-12-18T21:49:16.371Z,26.30
2018-12-18T21:51:55.054Z,40.40
2018-12-18T21:54:30.458Z,33.18
2018-12-18T21:57:02.745Z,21.30
2018-12-18T21:59:34.693Z,86.67
2018-12-18T22:02:06.611Z,83.37
2018-12-18T22:04:42.571Z,61.37
2018-12-18T22:07:14.200Z,56.08
2018-12-18T22:09:45.974Z,38.73
2018-12-18T22:12:17.627Z,43.50
2018-12-18T22:14:49.834Z,46.42
2018-12-18T22:17:26.025Z,33.40
2018-12-18T22:19:58.632Z,29.50
2018-12-18T22:22:31.694Z,24.10
2018-12-18T22:25:04.067Z,31.97
2018-12-18T22:27:35.819Z,24.72
2018-12-18T22:30:08.282Z,24.70
2018-12-18T22:32:43.061Z,21.00
2018-12-18T22:35:15.586Z,21.00
2018-12-18T22:37:48.295Z,20.88
2018-12-18T22:40:20.543Z,20.50
2018-12-18T22:42:52.635Z,21.65
2018-12-18T22:45:24.254Z,25.60
2018-12-18T22:47:56.979Z,26.23
2018-12-18T22:50:28.995Z,24.92
2018-12-18T22:53:05.119Z,25.08
2018-12-18T22:55:37.430Z,31.97
2018-12-18T22:58:09.673Z,31.60
2018-12-18T23:00:46.973Z,22.20
2018-12-18T23:03:19.253Z,20.70
2018-12-18T23:05:51.078Z,21.30
2018-12-18T23:08:22.978Z,20.35
2018-12-18T23:10:55.175Z,19.95
2018-12-18T23:13:27.056Z,20.88
2018-12-18T23:15:59.297Z,21.30
2018-12-18T23:18:32.299Z,20.77
2018-12-18T23:21:04.900Z,20.95
2018-12-18T23:23:37.950Z,19.37
2018-12-18T23:26:10.194Z,18.85
2018-12-18T23:28:41.973Z,19.50
2018-12-18T23:31:14.090Z,20.45
2018-12-18T23:33:45.980Z,20.35
2018-12-18T23:36:18.488Z,18.85
2018-12-18T23:38:56.726Z,18.52
2018-12-18T23:41:25.479Z,19.50
2018-12-18T23:43:57.665Z,19.27
2018-12-18T23:46:33.831Z,19.35
2018-12-18T23:49:06.697Z,17.60
2018-12-18T23:51:41.433Z,18.62
2018-12-18T23:54:13.877Z,17.85
2018-12-18T23:56:45.994Z,18.32
2018-12-18T23:59:18.547Z,18.75
